createdAt,value
2018-09-01T00:00:05.222Z,66.7
2018-09-01T00:01:15.390Z,66.86
2018-09-01T00:02:25.560Z,66.61
2018-09-01T00:03:35.766Z,66.99
2018-09-01T00:04:46.126Z,66.7
2018-09-01T00:05:56.263Z,66.8
2018-09-01T00:07:06.489Z,66.8
2018-09-01T00:08:16.689Z,67.08
2018-09-01T00:09:26.862Z,66.7
2018-09-01T00:10:36.731Z,66.7
2018-09-01T00:11:46.969Z,66.89
2018-09-01T00:12:57.155Z,66.7
2018-09-01T00:14:07.326Z,66.7
2018-09-01T00:15:17.571Z,66.57
2018-09-01T00:16:27.932Z,67.05
2018-09-01T00:17:38.827Z,67.47
2018-09-01T00:18:49.042Z,67.43
2018-09-01T00:19:58.937Z,67.24
2018-09-01T00:21:09.119Z,67.05
2018-09-01T00:22:19.279Z,67.14
2018-09-01T00:23:29.225Z,67.05
2018-09-01T00:24:39.385Z,67.05
2018-09-01T00:25:49.548Z,67.34
2018-09-01T00:26:59.780Z,67.82
2018-09-01T00:28:09.914Z,67.63
2018-09-01T00:29:19.715Z,67.53
2018-09-01T00:30:30.003Z,67.82
2018-09-01T00:31:40.368Z,67.82
2018-09-01T00:32:50.488Z,67.91
2018-09-01T00:34:00.637Z,67.82
2018-09-01T00:35:10.982Z,68.01
2018-09-01T00:36:20.840Z,68.1
2018-09-01T00:37:31.421Z,67.91
2018-09-01T00:38:41.593Z,68.1
2018-09-01T00:39:51.474Z,68.29
2018-09-01T00:41:01.652Z,67.72
2018-09-01T00:42:11.783Z,68.1
2018-09-01T00:43:21.973Z,68.01
2018-09-01T00:44:32.335Z,68.1
2018-09-01T00:45:42.474Z,67.91
2018-09-01T00:46:52.634Z,68.1
2018-09-01T00:48:02.503Z,68.1
2018-09-01T00:49:12.380Z,68.01
2018-09-01T00:50:22.501Z,68.2
2018-09-01T00:51:32.618Z,67.43
2018-09-01T00:52:42.786Z,68.1
2018-09-01T00:53:52.899Z,67.72
2018-09-01T00:55:03.218Z,68.1
2018-09-01T00:56:13.378Z,68.39
2018-09-01T00:57:23.668Z,68.2
2018-09-01T00:58:33.832Z,67.82
2018-09-01T00:59:43.471Z,68.1
2018-09-01T01:00:53.600Z,68.01
2018-09-01T01:02:03.773Z,68.1
2018-09-01T01:03:13.892Z,68.29
2018-09-01T01:04:23.805Z,68.1
2018-09-01T01:05:33.941Z,68.01
2018-09-01T01:06:44.095Z,68.29
2018-09-01T01:07:54.380Z,67.63
2018-09-01T01:09:04.505Z,68.2
2018-09-01T01:10:14.345Z,68.2
2018-09-01T01:11:24.231Z,68.01
2018-09-01T01:12:34.392Z,68.39
2018-09-01T01:13:44.587Z,68.35
2018-09-01T01:14:54.738Z,68.45
2018-09-01T01:16:04.853Z,68.64
2018-09-01T01:17:14.886Z,68.74
2018-09-01T01:18:24.740Z,68.84
2018-09-01T01:19:34.901Z,68.64
2018-09-01T01:20:44.696Z,68.84
2018-09-01T01:21:54.824Z,69.12
2018-09-01T01:23:05.037Z,68.84
2018-09-01T01:24:15.277Z,69.31
2018-09-01T01:25:25.423Z,69.02
2018-09-01T01:26:35.774Z,69.31
2018-09-01T01:27:45.637Z,69.21
2018-09-01T01:28:55.802Z,69.5
2018-09-01T01:30:05.983Z,69.41
2018-09-01T01:31:15.863Z,69.7
2018-09-01T01:32:25.779Z,69.21
2018-09-01T01:33:35.955Z,69.89
2018-09-01T01:34:46.327Z,69.6
2018-09-01T01:35:56.492Z,69.6
2018-09-01T01:37:06.756Z,69.5
2018-09-01T01:38:16.920Z,69.5
2018-09-01T01:39:27.326Z,70.07
2018-09-01T01:40:37.457Z,70.17
2018-09-01T01:41:47.587Z,70.04
2018-09-01T01:42:57.715Z,70.36
2018-09-01T01:44:07.861Z,70.17
2018-09-01T01:45:17.994Z,70.07
2018-09-01T01:46:28.229Z,70.23
2018-09-01T01:47:38.391Z,70.17
2018-09-01T01:48:48.279Z,70.07
2018-09-01T01:49:58.414Z,70.27
2018-09-01T01:51:08.758Z,70.07
2018-09-01T01:52:19.030Z,69.98
2018-09-01T01:53:29.178Z,70.36
2018-09-01T01:54:39.324Z,70.75
2018-09-01T01:55:49.206Z,70.46
2018-09-01T01:56:59.352Z,70.56
2018-09-01T01:58:10.039Z,70.75
2018-09-01T01:59:19.916Z,71.03
2018-09-01T02:00:30.174Z,70.84
2018-09-01T02:01:40.569Z,71.03
2018-09-01T02:02:50.689Z,70.94
2018-09-01T02:04:00.859Z,70.75
2018-09-01T02:05:11.036Z,71.22
2018-09-01T02:06:21.299Z,71.32
2018-09-01T02:07:31.515Z,71.22
2018-09-01T02:08:41.713Z,70.81
2018-09-01T02:09:51.846Z,71.22
2018-09-01T02:11:02.238Z,71.89
2018-09-01T02:12:12.154Z,71.7
2018-09-01T02:13:22.290Z,71.57
2018-09-01T02:14:32.414Z,71.28
2018-09-01T02:15:42.537Z,71.47
2018-09-01T02:16:52.735Z,71.61
2018-09-01T02:18:02.995Z,72.05
2018-09-01T02:19:13.344Z,72.33
2018-09-01T02:20:23.609Z,71.76
2018-09-01T02:21:33.780Z,72.14
2018-09-01T02:22:44.956Z,72.43
2018-09-01T02:23:55.125Z,72.53
2018-09-01T02:25:05.433Z,72.33
2018-09-01T02:26:15.684Z,72.53
2018-09-01T02:27:25.880Z,72.33
2018-09-01T02:28:36.072Z,72.43
2018-09-01T02:29:46.214Z,72.72
2018-09-01T02:30:56.423Z,73
2018-09-01T02:32:06.636Z,72.81
2018-09-01T02:33:16.836Z,73.19
2018-09-01T02:34:27.087Z,73.19
2018-09-01T02:35:37.358Z,73.29
2018-09-01T02:36:47.605Z,73.19
2018-09-01T02:37:57.481Z,73.29
2018-09-01T02:39:07.644Z,73.48
2018-09-01T02:40:17.524Z,73.39
2018-09-01T02:41:27.656Z,73.86
2018-09-01T02:42:37.793Z,73.67
2018-09-01T02:43:47.510Z,73.77
2018-09-01T02:44:57.678Z,73.77
2018-09-01T02:46:07.473Z,73.96
2018-09-01T02:47:17.760Z,73.77
2018-09-01T02:48:27.981Z,73.86
2018-09-01T02:49:38.137Z,73.77
2018-09-01T02:50:48.310Z,73.67
2018-09-01T02:51:58.514Z,73.86
2018-09-01T02:53:08.358Z,73.96
2018-09-01T02:54:18.501Z,73.96
2018-09-01T02:55:28.728Z,74.34
2018-09-01T02:56:38.890Z,74.05
2018-09-01T02:57:49.130Z,74.34
2018-09-01T02:58:59.486Z,74.53
2018-09-01T03:00:09.338Z,73.96
2018-09-01T03:01:19.463Z,73.96
2018-09-01T03:02:29.682Z,74.82
2018-09-01T03:03:39.856Z,74.34
2018-09-01T03:04:50.104Z,74.34
2018-09-01T03:06:00.259Z,74.63
2018-09-01T03:07:10.494Z,74.91
2018-09-01T03:08:20.816Z,74.82
2018-09-01T03:09:30.988Z,74.4
2018-09-01T03:10:41.127Z,75.16
2018-09-01T03:11:50.964Z,75.07
2018-09-01T03:13:00.738Z,75.07
2018-09-01T03:14:10.906Z,75.16
2018-09-01T03:15:21.032Z,75.64
2018-09-01T03:16:31.180Z,75.45
2018-09-01T03:17:41.669Z,75.74
2018-09-01T03:18:51.834Z,75.64
2018-09-01T03:20:01.696Z,75.64
2018-09-01T03:21:11.905Z,75.54
2018-09-01T03:22:21.795Z,75.54
2018-09-01T03:23:31.923Z,75.64
2018-09-01T03:24:42.113Z,75.93
2018-09-01T03:25:52.219Z,75.96
2018-09-01T03:27:02.363Z,76.03
2018-09-01T03:28:12.500Z,75.93
2018-09-01T03:29:22.732Z,76.12
2018-09-01T03:30:32.901Z,76.03
2018-09-01T03:31:43.060Z,76.21
2018-09-01T03:32:53.344Z,76.4
2018-09-01T03:34:03.537Z,76.12
2018-09-01T03:35:13.690Z,76.6
2018-09-01T03:36:23.811Z,76.5
2018-09-01T03:37:33.992Z,76.69
2018-09-01T03:38:43.850Z,76.79
2018-09-01T03:39:53.999Z,76.69
2018-09-01T03:41:04.115Z,76.79
2018-09-01T03:42:14.257Z,76.88
2018-09-01T03:43:24.131Z,76.4
2018-09-01T03:44:34.311Z,76.69
2018-09-01T03:45:44.432Z,76.6
2018-09-01T03:46:54.574Z,77.17
2018-09-01T03:48:04.741Z,77.17
2018-09-01T03:49:14.982Z,76.79
2018-09-01T03:50:25.192Z,76.6
2018-09-01T03:51:35.338Z,76.98
2018-09-01T03:52:45.493Z,77.08
2018-09-01T03:53:55.691Z,77.17
2018-09-01T03:55:05.838Z,76.98
2018-09-01T03:56:15.779Z,77.45
2018-09-01T03:57:26.211Z,77.08
2018-09-01T03:58:36.353Z,77.26
2018-09-01T03:59:46.591Z,77.45
2018-09-01T04:00:56.452Z,77.17
2018-09-01T04:02:06.590Z,77.08
2018-09-01T04:03:16.721Z,77.08
2018-09-01T04:04:26.603Z,77.55
2018-09-01T04:05:36.974Z,77.36
2018-09-01T04:06:46.926Z,77.45
2018-09-01T04:07:57.052Z,77.45
2018-09-01T04:09:07.288Z,77.26
2018-09-01T04:10:17.572Z,77.08
2018-09-01T04:11:27.442Z,77.08
2018-09-01T04:12:37.567Z,77.08
2018-09-01T04:13:47.711Z,77.08
2018-09-01T04:14:57.850Z,77.08
2018-09-01T04:16:07.988Z,76.6
2018-09-01T04:17:18.164Z,77.26
2018-09-01T04:18:28.297Z,76.98
2018-09-01T04:19:38.442Z,77.08
2018-09-01T04:20:48.630Z,76.98
2018-09-01T04:21:58.802Z,77.17
2018-09-01T04:23:09.014Z,77.17
2018-09-01T04:24:19.266Z,76.88
2018-09-01T04:25:29.436Z,77.08
2018-09-01T04:26:39.767Z,77.26
2018-09-01T04:27:49.374Z,76.6
2018-09-01T04:28:59.654Z,76.88
2018-09-01T04:30:09.832Z,77.17
2018-09-01T04:31:19.953Z,76.88
2018-09-01T04:32:30.085Z,77.45
2018-09-01T04:33:40.155Z,77.45
2018-09-01T04:34:50.401Z,77.36
2018-09-01T04:36:00.534Z,77.45
2018-09-01T04:37:10.395Z,77.55
2018-09-01T04:38:20.547Z,77.55
2018-09-01T04:39:30.718Z,77.26
2018-09-01T04:40:40.872Z,77.45
2018-09-01T04:41:51.341Z,77.55
2018-09-01T04:43:01.304Z,77.45
2018-09-01T04:44:11.451Z,77.55
2018-09-01T04:45:21.708Z,77.45
2018-09-01T04:46:31.948Z,77.65
2018-09-01T04:47:41.870Z,77.36
2018-09-01T04:48:52.025Z,77.45
2018-09-01T04:50:02.249Z,78.03
2018-09-01T04:51:12.515Z,77.36
2018-09-01T04:52:22.469Z,77.55
2018-09-01T04:53:32.589Z,77.36
2018-09-01T04:54:42.744Z,77.94
2018-09-01T04:55:52.908Z,78.31
2018-09-01T04:57:03.037Z,78.22
2018-09-01T04:58:13.223Z,78.22
2018-09-01T04:59:23.433Z,78.13
2018-09-01T05:00:33.595Z,77.94
2018-09-01T05:01:43.734Z,78.13
2018-09-01T05:02:53.927Z,78.31
2018-09-01T05:04:04.288Z,78.22
2018-09-01T05:05:14.543Z,78.13
2018-09-01T05:06:25.392Z,78.51
2018-09-01T05:07:35.280Z,78.51
2018-09-01T05:08:45.276Z,78.41
2018-09-01T05:09:55.490Z,78.51
2018-09-01T05:11:05.331Z,78.22
2018-09-01T05:12:15.445Z,78.6
2018-09-01T05:13:25.606Z,78.51
2018-09-01T05:14:35.753Z,79.08
2018-09-01T05:15:45.865Z,78.79
2018-09-01T05:16:55.996Z,78.7
2018-09-01T05:18:06.114Z,78.7
2018-09-01T05:19:16.250Z,78.89
2018-09-01T05:20:26.405Z,78.89
2018-09-01T05:21:36.605Z,78.99
2018-09-01T05:22:46.745Z,78.99
2018-09-01T05:23:57.016Z,78.7
2018-09-01T05:25:07.623Z,78.41
2018-09-01T05:26:17.640Z,78.51
2018-09-01T05:27:27.893Z,78.36
2018-09-01T05:28:38.059Z,78.36
2018-09-01T05:29:47.942Z,78.07
2018-09-01T05:30:58.063Z,78.16
2018-09-01T05:32:08.310Z,78.16
2018-09-01T05:33:18.492Z,78.07
2018-09-01T05:34:28.734Z,78.36
2018-09-01T05:35:38.514Z,77.97
2018-09-01T05:36:48.676Z,77.3
2018-09-01T05:37:58.907Z,77.4
2018-09-01T05:39:08.775Z,77.59
2018-09-01T05:40:18.911Z,77.3
2018-09-01T05:41:29.054Z,77.11
2018-09-01T05:42:39.220Z,77.21
2018-09-01T05:43:49.490Z,77.4
2018-09-01T05:44:59.768Z,77.5
2018-09-01T05:46:10.003Z,77.34
2018-09-01T05:47:20.166Z,77.34
2018-09-01T05:48:30.443Z,77.63
2018-09-01T05:49:40.631Z,77.63
2018-09-01T05:50:51.053Z,77.53
2018-09-01T05:52:01.525Z,77.44
2018-09-01T05:53:11.744Z,77.44
2018-09-01T05:54:21.969Z,77.44
2018-09-01T05:55:32.131Z,77.92
2018-09-01T05:56:42.506Z,78.11
2018-09-01T05:57:52.852Z,77.92
2018-09-01T05:59:03.000Z,77.34
2018-09-01T06:00:14.132Z,77.44
2018-09-01T06:01:24.314Z,77.82
2018-09-01T06:02:34.217Z,77.92
2018-09-01T06:03:44.034Z,78.3
2018-09-01T06:04:54.166Z,77.82
2018-09-01T06:06:04.351Z,78.3
2018-09-01T06:07:15.261Z,78.11
2018-09-01T06:08:25.408Z,78.01
2018-09-01T06:09:35.288Z,77.44
2018-09-01T06:10:45.470Z,77.34
2018-09-01T06:11:55.680Z,77.63
2018-09-01T06:13:06.021Z,77.63
2018-09-01T06:14:16.450Z,77.28
2018-09-01T06:15:26.330Z,77.67
2018-09-01T06:16:36.454Z,77.09
2018-09-01T06:17:46.831Z,77.09
2018-09-01T06:18:57.263Z,76.9
2018-09-01T06:20:07.524Z,77
2018-09-01T06:21:17.644Z,77.09
2018-09-01T06:22:27.826Z,77.09
2018-09-01T06:23:37.708Z,77.19
2018-09-01T06:24:47.373Z,76.94
2018-09-01T06:25:57.780Z,77.19
2018-09-01T06:27:07.666Z,76.9
2018-09-01T06:28:17.915Z,77.42
2018-09-01T06:29:27.817Z,77.33
2018-09-01T06:30:37.740Z,76.94
2018-09-01T06:31:47.863Z,77.04
2018-09-01T06:32:58.168Z,77.33
2018-09-01T06:34:08.761Z,76.94
2018-09-01T06:35:18.991Z,76.94
2018-09-01T06:36:29.144Z,76.94
2018-09-01T06:37:39.032Z,76.94
2018-09-01T06:38:49.716Z,77.33
2018-09-01T06:39:59.843Z,77.33
2018-09-01T06:41:09.984Z,77.33
2018-09-01T06:42:20.137Z,76.94
2018-09-01T06:43:30.270Z,76.94
2018-09-01T06:44:40.430Z,76.94
2018-09-01T06:45:51.019Z,77.04
2018-09-01T06:47:01.180Z,77.33
2018-09-01T06:48:12.285Z,77.13
2018-09-01T06:49:22.412Z,77.51
2018-09-01T06:50:32.553Z,77.23
2018-09-01T06:51:43.523Z,77.23
2018-09-01T06:52:53.656Z,77.13
2018-09-01T06:54:04.003Z,77.17
2018-09-01T06:55:14.020Z,77.33
2018-09-01T06:56:24.162Z,77.36
2018-09-01T06:57:34.473Z,77.46
2018-09-01T06:58:44.329Z,77.26
2018-09-01T06:59:54.680Z,77.7
2018-09-01T07:01:04.540Z,77.7
2018-09-01T07:02:14.736Z,77.75
2018-09-01T07:03:24.935Z,77.7
2018-09-01T07:04:35.072Z,77.75
2018-09-01T07:05:45.113Z,77.84
2018-09-01T07:06:55.285Z,77.17
2018-09-01T07:08:05.465Z,77.17
2018-09-01T07:09:15.671Z,76.98
2018-09-01T07:10:25.924Z,77.36
2018-09-01T07:11:36.180Z,77.26
2018-09-01T07:12:46.390Z,77.46
2018-09-01T07:13:56.098Z,77.08
2018-09-01T07:15:06.258Z,77.26
2018-09-01T07:16:16.175Z,77.46
2018-09-01T07:17:26.383Z,77.17
2018-09-01T07:18:36.594Z,77.17
2018-09-01T07:19:46.838Z,77.26
2018-09-01T07:20:57.043Z,77.65
2018-09-01T07:22:07.203Z,77.55
2018-09-01T07:23:17.399Z,77.5
2018-09-01T07:24:27.530Z,77.21
2018-09-01T07:25:37.881Z,77.4
2018-09-01T07:26:47.624Z,77.21
2018-09-01T07:27:57.527Z,77.02
2018-09-01T07:29:08.015Z,77.02
2018-09-01T07:30:18.551Z,77.31
2018-09-01T07:31:30.344Z,77.11
2018-09-01T07:32:41.619Z,76.82
2018-09-01T07:33:51.513Z,76.25
2018-09-01T07:35:01.707Z,76.29
2018-09-01T07:36:11.867Z,77.06
2018-09-01T07:37:22.046Z,76.39
2018-09-01T07:38:32.312Z,76.19
2018-09-01T07:39:42.581Z,76.39
2018-09-01T07:40:52.791Z,76.19
2018-09-01T07:42:02.689Z,76
2018-09-01T07:43:12.832Z,75.62
2018-09-01T07:44:23.002Z,75.85
2018-09-01T07:45:33.156Z,75.27
2018-09-01T07:46:43.305Z,75.08
2018-09-01T07:47:53.532Z,74.6
2018-09-01T07:49:04.022Z,75.08
2018-09-01T07:50:14.347Z,74.44
2018-09-01T07:51:24.271Z,74.83
2018-09-01T07:52:34.503Z,74.58
2018-09-01T07:53:44.691Z,74.39
2018-09-01T07:54:54.861Z,73.85
2018-09-01T07:56:05.502Z,73.46
2018-09-01T07:57:16.363Z,73.56
2018-09-01T07:58:26.480Z,73.37
2018-09-01T07:59:36.661Z,73.27
2018-09-01T08:00:46.896Z,72.79
2018-09-01T08:01:57.137Z,72.25
2018-09-01T08:03:07.444Z,71.23
2018-09-01T08:04:17.613Z,70.4
2018-09-01T08:05:27.862Z,69.89
2018-09-01T08:06:38.087Z,68.64
2018-09-01T08:07:48.285Z,68.54
2018-09-01T08:08:58.427Z,68.44
2018-09-01T08:10:08.547Z,68.44
2018-09-01T08:11:18.700Z,68.35
2018-09-01T08:12:28.855Z,68.74
2018-09-01T08:13:39.115Z,68.51
2018-09-01T08:14:49.620Z,68.51
2018-09-01T08:15:59.870Z,68.41
2018-09-01T08:17:10.979Z,68.7
2018-09-01T08:18:21.217Z,68.22
2018-09-01T08:19:31.330Z,67.93
2018-09-01T08:20:41.455Z,67.83
2018-09-01T08:21:51.604Z,67.83
2018-09-01T08:23:01.764Z,68.13
2018-09-01T08:24:11.893Z,68.29
2018-09-01T08:25:22.053Z,68.38
2018-09-01T08:26:32.336Z,68.76
2018-09-01T08:27:42.627Z,68.29
2018-09-01T08:28:52.846Z,67.74
2018-09-01T08:30:03.490Z,67.93
2018-09-01T08:31:13.655Z,67
2018-09-01T08:32:23.897Z,66.36
2018-09-01T08:33:34.157Z,66.2
2018-09-01T08:34:45.631Z,65.63
2018-09-01T08:35:56.001Z,65.17
2018-09-01T08:37:06.344Z,64.05
2018-09-01T08:38:16.742Z,63.92
2018-09-01T08:39:26.929Z,62.86
2018-09-01T08:40:36.758Z,61.15
2018-09-01T08:41:47.231Z,60.79
2018-09-01T08:42:57.433Z,60.24
2018-09-01T08:44:07.322Z,59.76
2018-09-01T08:45:17.553Z,58.98
2018-09-01T08:46:28.081Z,57.86
2018-09-01T08:47:38.336Z,56.72
2018-09-01T08:48:48.730Z,55.68
2018-09-01T08:49:58.926Z,55.13
2018-09-01T08:51:09.469Z,54.48
2018-09-01T08:52:19.641Z,53.99
2018-09-01T08:53:29.926Z,53.89
2018-09-01T08:54:40.105Z,54.45
2018-09-01T08:55:50.329Z,54.43
2018-09-01T08:57:00.504Z,54.3
2018-09-01T08:58:10.898Z,54.66
2018-09-01T08:59:20.766Z,54.57
2018-09-01T09:00:30.957Z,55.05
2018-09-01T09:01:40.951Z,55.7
2018-09-01T09:02:51.222Z,55.19
2018-09-01T09:04:01.379Z,55.57
2018-09-01T09:05:11.558Z,55.41
2018-09-01T09:06:21.798Z,54.35
2018-09-01T09:07:31.983Z,54.17
2018-09-01T09:08:41.935Z,53.23
2018-09-01T09:09:52.107Z,51.23
2018-09-01T09:11:03.215Z,51.16
2018-09-01T09:12:13.452Z,50.92
2018-09-01T09:13:23.654Z,49.58
2018-09-01T09:14:33.950Z,49.12
2018-09-01T09:15:44.300Z,48.2
2018-09-01T09:16:54.511Z,46.96
2018-09-01T09:18:04.687Z,45.94
2018-09-01T09:19:14.598Z,43.89
2018-09-01T09:20:24.754Z,42.84
2018-09-01T09:21:35.883Z,41.69
2018-09-01T09:22:46.094Z,41.99
2018-09-01T09:23:56.265Z,40.45
2018-09-01T09:25:06.457Z,41.52
2018-09-01T09:26:16.661Z,41.54
2018-09-01T09:28:39.861Z,40.47
2018-09-01T09:29:50.169Z,40
2018-09-01T09:31:00.381Z,40.19
2018-09-01T09:32:10.645Z,40
2018-09-01T09:33:20.953Z,39.8
2018-09-01T09:34:31.195Z,38.84
2018-09-01T09:35:41.509Z,38.45
2018-09-01T09:36:51.696Z,37.67
2018-09-01T09:38:01.862Z,37.96
2018-09-01T09:39:12.000Z,37.46
2018-09-01T09:40:22.054Z,37.15
2018-09-01T09:41:32.047Z,38.02
2018-09-01T09:42:42.206Z,37.71
2018-09-01T09:43:52.356Z,37.52
2018-09-01T09:45:02.548Z,37.91
2018-09-01T09:46:12.718Z,37.62
2018-09-01T09:47:22.878Z,38.18
2018-09-01T09:48:34.243Z,39.12
2018-09-01T09:49:44.465Z,39
2018-09-01T09:50:54.620Z,39.1
2018-09-01T09:52:05.037Z,39.49
2018-09-01T09:53:15.286Z,39.86
2018-09-01T09:54:25.460Z,39.75
2018-09-01T09:55:35.711Z,40.52
2018-09-01T09:56:45.608Z,41.08
2018-09-01T09:57:55.752Z,41.26
2018-09-01T09:59:05.664Z,41.36
2018-09-01T10:00:15.899Z,41.16
2018-09-01T10:01:26.106Z,40.5
2018-09-01T10:02:36.438Z,40.23
2018-09-01T10:03:46.317Z,40.15
2018-09-01T10:04:56.521Z,39.86
2018-09-01T10:06:06.685Z,39.59
2018-09-01T10:07:16.858Z,39.78
2018-09-01T10:08:26.999Z,38.54
2018-09-01T10:09:37.168Z,39.12
2018-09-01T10:10:47.454Z,37.56
2018-09-01T10:11:57.705Z,37.46
2018-09-01T10:13:07.887Z,38.23
2018-09-01T10:14:18.134Z,37.92
2018-09-01T10:15:27.938Z,37.62
2018-09-01T10:16:38.168Z,38.01
2018-09-01T10:17:48.331Z,38.09
2018-09-01T10:18:58.567Z,37.8
2018-09-01T10:20:08.974Z,37.8
2018-09-01T10:21:19.751Z,37.62
2018-09-01T10:22:30.160Z,36.67
2018-09-01T10:23:40.053Z,36.75
2018-09-01T10:24:50.407Z,36.73
2018-09-01T10:26:00.569Z,36.52
2018-09-01T10:27:10.945Z,36.93
2018-09-01T10:28:21.160Z,37.02
2018-09-01T10:30:46.415Z,37.45
2018-09-01T10:31:57.579Z,37.37
2018-09-01T10:33:07.762Z,37.66
2018-09-01T10:34:17.979Z,37.27
2018-09-01T10:35:27.704Z,37.76
2018-09-01T10:36:37.901Z,37.64
2018-09-01T10:37:47.823Z,37.35
2018-09-01T10:38:57.985Z,37.52
2018-09-01T10:40:08.193Z,37.62
2018-09-01T10:41:19.361Z,37.8
2018-09-01T10:42:29.550Z,38.37
2018-09-01T10:43:39.690Z,39.7
2018-09-01T10:44:49.892Z,39.78
2018-09-01T10:46:00.390Z,39.57
2018-09-01T10:47:10.633Z,39.69
2018-09-01T10:48:21.005Z,39.41
2018-09-01T10:49:31.192Z,39.22
2018-09-01T10:50:41.402Z,38.85
2018-09-01T10:51:51.708Z,38.29
2018-09-01T10:53:01.856Z,36.67
2018-09-01T10:54:12.050Z,35.61
2018-09-01T10:55:22.433Z,35.33
2018-09-01T10:56:32.628Z,35.25
2018-09-01T10:57:42.595Z,34.88
2018-09-01T10:58:52.902Z,33.31
2018-09-01T11:00:03.607Z,32.45
2018-09-01T11:01:14.819Z,32.45
2018-09-01T11:02:24.722Z,32.55
2018-09-01T11:03:34.698Z,33.14
2018-09-01T11:04:44.964Z,33.15
2018-09-01T11:05:56.475Z,33.17
2018-09-01T11:07:08.748Z,33.07
2018-09-01T11:08:18.946Z,32.87
2018-09-01T11:09:31.498Z,32.5
2018-09-01T11:10:45.593Z,31.93
2018-09-01T11:11:55.766Z,32.42
2018-09-01T11:13:05.935Z,32.71
2018-09-01T11:14:15.753Z,32.7
2018-09-01T11:16:41.854Z,33.92
2018-09-01T11:17:52.515Z,34.88
2018-09-01T11:19:02.826Z,35.52
2018-09-01T11:20:33.121Z,35.42
2018-09-01T11:21:43.740Z,35.42
2018-09-01T11:22:54.033Z,35.23
2018-09-01T11:24:04.271Z,34.76
2018-09-01T11:25:14.449Z,34.48
2018-09-01T11:26:24.637Z,33.9
2018-09-01T11:27:35.013Z,33.41
2018-09-01T11:28:45.781Z,33.33
2018-09-01T11:29:55.962Z,33.14
2018-09-01T11:31:06.193Z,32.37
2018-09-01T11:32:16.436Z,32.47
2018-09-01T11:33:26.678Z,33.15
2018-09-01T11:34:36.895Z,33.17
2018-09-01T11:35:47.208Z,32.68
2018-09-01T11:36:57.749Z,32.5
2018-09-01T11:39:23.600Z,32.68
2018-09-01T11:40:33.827Z,33.34
2018-09-01T11:41:45.584Z,33.92
2018-09-01T11:42:55.865Z,34.39
2018-09-01T11:44:06.840Z,34.94
2018-09-01T11:45:19.064Z,35.7
2018-09-01T11:46:29.465Z,36.26
2018-09-01T11:47:39.669Z,36.16
2018-09-01T11:48:50.014Z,36.24
2018-09-01T11:50:00.381Z,36.32
2018-09-01T11:51:10.653Z,35.86
2018-09-01T11:52:20.895Z,35.76
2018-09-01T11:53:31.232Z,35.78
2018-09-01T11:54:41.809Z,35
2018-09-01T11:55:51.664Z,34.92
2018-09-01T11:57:01.871Z,34.94
2018-09-01T11:58:12.045Z,34.47
2018-09-01T11:59:22.232Z,33.7
2018-09-01T12:00:32.526Z,33.62
2018-09-01T12:01:42.493Z,33.43
2018-09-01T12:02:52.832Z,33.53
2018-09-01T12:04:03.102Z,33.12
2018-09-01T12:05:13.314Z,33.12
2018-09-01T12:06:23.607Z,32.63
2018-09-01T12:07:33.797Z,32.05
2018-09-01T12:08:44.137Z,32.43
2018-09-01T12:09:54.682Z,32.65
2018-09-01T12:11:04.915Z,32.35
2018-09-01T12:12:15.415Z,32.28
2018-09-01T12:13:25.806Z,31.4
2018-09-01T12:14:36.087Z,30.93
2018-09-01T12:15:46.372Z,30.81
2018-09-01T12:16:57.051Z,31.01
2018-09-01T12:18:07.329Z,31.28
2018-09-01T12:19:17.276Z,31.66
2018-09-01T12:20:27.499Z,32.42
2018-09-01T12:21:37.476Z,32.7
2018-09-01T12:22:49.027Z,32.87
2018-09-01T12:23:59.265Z,33.46
2018-09-01T12:25:10.058Z,33.75
2018-09-01T12:26:20.262Z,34.12
2018-09-01T12:27:30.474Z,34.03
2018-09-01T12:28:40.699Z,34.03
2018-09-01T12:29:50.925Z,34.3
2018-09-01T12:31:01.181Z,33.72
2018-09-01T12:32:11.217Z,33.53
2018-09-01T12:33:21.427Z,33.72
2018-09-01T12:34:31.662Z,33.25
2018-09-01T12:35:41.916Z,33.25
2018-09-01T12:36:52.153Z,33.54
2018-09-01T12:38:02.379Z,33.54
2018-09-01T12:39:12.831Z,33.26
2018-09-01T12:40:23.161Z,33.75
2018-09-01T12:41:33.074Z,33.65
2018-09-01T12:42:44.581Z,33.77
2018-09-01T12:43:54.794Z,32.89
2018-09-01T12:45:05.066Z,33.09
2018-09-01T12:46:14.993Z,32.52
2018-09-01T12:47:25.201Z,32.5
2018-09-01T12:48:35.189Z,31.45
2018-09-01T12:49:45.620Z,30.96
2018-09-01T12:50:55.840Z,31.63
2018-09-01T12:52:05.449Z,32.1
2018-09-01T12:53:15.594Z,32.76
2018-09-01T12:54:29.089Z,33.54
2018-09-01T12:55:39.315Z,34.4
2018-09-01T12:56:49.499Z,34.67
2018-09-01T12:57:59.810Z,35.25
2018-09-01T12:59:10.007Z,35.33
2018-09-01T13:00:20.143Z,35.82
2018-09-01T13:01:30.329Z,36.04
2018-09-01T13:02:40.537Z,36.13
2018-09-01T13:03:50.767Z,36.04
2018-09-01T13:05:00.960Z,35.74
2018-09-01T13:06:11.510Z,35.55
2018-09-01T13:07:21.858Z,35.25
2018-09-01T13:08:31.735Z,34.77
2018-09-01T13:09:41.937Z,34.48
2018-09-01T13:10:52.119Z,34.75
2018-09-01T13:12:02.324Z,34.95
2018-09-01T13:13:12.525Z,35.82
2018-09-01T13:14:22.731Z,36.29
2018-09-01T13:15:32.956Z,36.38
2018-09-01T13:16:43.164Z,37.05
2018-09-01T13:17:54.743Z,37.15
2018-09-01T13:19:06.527Z,37.34
2018-09-01T13:20:19.597Z,37.34
2018-09-01T13:21:29.770Z,37.24
2018-09-01T13:22:40.145Z,36.76
2018-09-01T13:23:50.344Z,36.85
2018-09-01T13:25:00.511Z,36.76
2018-09-01T13:26:12.092Z,36.85
2018-09-01T13:27:22.073Z,36.85
2018-09-01T13:28:32.279Z,36.76
2018-09-01T13:29:42.439Z,36.76
2018-09-01T13:30:52.650Z,36.56
2018-09-01T13:32:02.811Z,36.66
2018-09-01T13:33:13.235Z,36.95
2018-09-01T13:34:23.385Z,37.73
2018-09-01T13:35:36.269Z,37.13
2018-09-01T13:36:46.439Z,37.03
2018-09-01T13:37:56.764Z,36.91
2018-09-01T13:39:07.154Z,37.4
2018-09-01T13:40:17.108Z,37.28
2018-09-01T13:41:27.412Z,37.57
2018-09-01T13:42:37.579Z,37.38
2018-09-01T13:43:47.820Z,37.48
2018-09-01T13:44:57.820Z,36.8
2018-09-01T13:46:09.666Z,36.8
2018-09-01T13:47:20.094Z,36.68
2018-09-01T13:48:30.336Z,36.68
2018-09-01T13:49:40.519Z,36.88
2018-09-01T13:50:50.730Z,37.07
2018-09-01T13:52:00.908Z,37.17
2018-09-01T13:53:11.162Z,36.98
2018-09-01T13:54:20.752Z,36.98
2018-09-01T13:55:30.939Z,37.46
2018-09-01T13:56:42.857Z,37.55
2018-09-01T13:57:55.303Z,38.04
2018-09-01T14:00:22.134Z,38.53
2018-09-01T14:01:32.462Z,38.43
2018-09-01T14:02:42.527Z,38.23
2018-09-01T14:03:52.809Z,38.53
2018-09-01T14:05:04.034Z,38.35
2018-09-01T14:06:14.315Z,38.54
2018-09-01T14:07:24.517Z,38.93
2018-09-01T14:08:34.898Z,39.7
2018-09-01T14:09:45.427Z,39.9
2018-09-01T14:10:55.697Z,39.7
2018-09-01T14:12:06.097Z,38.83
2018-09-01T14:13:16.274Z,38.15
2018-09-01T14:16:13.223Z,37.67
2018-09-01T14:17:26.011Z,37.87
2018-09-01T14:18:36.186Z,38.45
2018-09-01T14:21:02.751Z,38.64
2018-09-01T14:22:13.489Z,38.45
2018-09-01T14:23:23.868Z,38.83
2018-09-01T14:24:34.130Z,39.69
2018-09-01T14:25:44.384Z,39.69
2018-09-01T14:26:54.564Z,40.63
2018-09-01T14:28:04.575Z,40.73
2018-09-01T14:29:14.978Z,41.02
2018-09-01T14:30:25.219Z,41.11
2018-09-01T14:31:35.388Z,41.02
2018-09-01T14:32:45.588Z,41.41
2018-09-01T14:33:55.921Z,41.31
2018-09-01T14:35:07.133Z,41.48
2018-09-01T14:36:17.495Z,42.08
2018-09-01T14:37:28.050Z,41.7
2018-09-01T14:38:38.646Z,41.6
2018-09-01T14:39:48.962Z,41.5
2018-09-01T14:40:58.983Z,41.41
2018-09-01T14:42:09.360Z,41.21
2018-09-01T14:43:19.571Z,41.11
2018-09-01T14:44:29.666Z,41.11
2018-09-01T14:45:39.584Z,40.92
2018-09-01T14:46:49.868Z,40.92
2018-09-01T14:48:00.157Z,40.53
2018-09-01T14:49:10.250Z,39.95
2018-09-01T14:50:20.520Z,40.15
2018-09-01T14:51:30.191Z,40.65
2018-09-01T14:52:40.111Z,41.02
2018-09-01T14:53:50.024Z,40.83
2018-09-01T14:54:59.938Z,41.41
2018-09-01T14:56:10.530Z,41.79
2018-09-01T14:57:20.857Z,42.18
2018-09-01T14:58:32.325Z,42.18
2018-09-01T14:59:42.549Z,42.25
2018-09-01T15:00:52.773Z,42.45
2018-09-01T15:02:03.120Z,42.25
2018-09-01T15:03:13.989Z,42.83
2018-09-01T15:04:24.173Z,43.23
2018-09-01T15:05:34.388Z,42.83
2018-09-01T15:06:44.556Z,43.23
2018-09-01T15:07:54.548Z,43.13
2018-09-01T15:09:04.974Z,43.03
2018-09-01T15:10:15.148Z,42.65
2018-09-01T15:11:25.631Z,42.35
2018-09-01T15:12:35.606Z,42.35
2018-09-01T15:13:45.810Z,42.45
2018-09-01T15:14:56.967Z,41.97
2018-09-01T15:16:07.406Z,41.67
2018-09-01T15:17:18.546Z,41.7
2018-09-01T15:18:28.800Z,41.6